Terminal Aerodrome Forecast
Issued by NWS

Home | Current Version | Previous Version | Text Only | Print | Product List | Glossary On
Versions: 1 2 3 4 5 6 7 8 9 10 11 12 13 14
574
FTUS43 KICT 200738 AAA
TAFRSL
TAF AMD
KRSL 200738Z 2008/2106 17015KT 4SM BR BKN004
     FM201000 19010KT P6SM SCT005 BKN100
     FM201700 33017G24KT P6SM SCT250=

USA.gov is the U.S. government's official web portal to all federal, state and local government web resources and services.